サンホセ/フアン・サンタ・マリア の空港の天気 - METARとTAF

フアン・サンタ・マリア国際空港 ( MROC / SJO ) - コスタリカ サンホセ
飛行場実況気象(Metar)
観測時間01/22 22:00 CST (01/23 04:00 UTC)
風向・風速東 6m/s
視程10km以上
天気現象
なし
気温22℃
湿度73%
気圧1014hPa
METARMROC 230400Z 09011KT 040V130 CAVOK 22/17 A2995 NOSIG
過去の天気等 Google飛行場航空写真 Wunderground天気予報

過去48時間のMETAR

飛行場予報(TAF)
発表時間: 1/22 17:00 CST (1/22 23:00 UTC)
予報対象時間: 22日18時 CST ~ 23日18時 CST
風向・風速東 6m/s
視程10km以上
少しの雲 雲底高度 1,070m
23日15時 CST ~ 23日18時 CST に一時的に
風向・風速南西 3m/s
MROC 222300Z 2300/2324 10011KT 9999 FEW035 TX29/2219Z TN17/2310Z
TEMPO 2321/2324 23006KT